Time;durP1;ratioP1;P1;durP2;ratioP2;P2;SDS_P1;SDS_P2;PMS_P1;PMS_P2;Temp;Humidity;BMP_temperature;BMP_pressure;BME280_temperature;BME280_humidity;BME280_pressure;Samples;Min_cycle;Max_cycle;Signal;HPM_P1;HPM_P2
2023/11/26 00:00:05;;;;;;;6.72;1.50;;;2.80;99.90;;;;;;5104396;27;20135;-69
2023/11/26 00:02:31;;;;;;;4.10;1.45;;;2.80;99.90;;;;;;5092303;27;20542;-69
2023/11/26 00:04:57;;;;;;;4.88;1.45;;;2.80;99.90;;;;;;5104354;27;20043;-69
2023/11/26 00:07:23;;;;;;;2.40;1.15;;;2.70;99.90;;;;;;5102083;27;20123;-69
2023/11/26 00:09:49;;;;;;;1.92;0.93;;;2.70;99.90;;;;;;5102696;27;20508;-69
2023/11/26 00:12:14;;;;;;;1.60;0.82;;;2.70;99.90;;;;;;5107650;27;20051;-69
2023/11/26 00:14:40;;;;;;;5.65;1.00;;;2.60;99.90;;;;;;5109140;27;20044;-68
2023/11/26 00:17:06;;;;;;;2.05;1.10;;;2.60;99.90;;;;;;5108831;27;20035;-68
2023/11/26 00:19:34;;;;;;;7.35;1.25;;;2.60;99.90;;;;;;5100701;27;20036;-69
2023/11/26 00:22:00;;;;;;;4.78;1.52;;;2.50;99.90;;;;;;5107087;27;20124;-69
2023/11/26 00:24:25;;;;;;;3.80;1.52;;;2.50;99.90;;;;;;5108674;27;20119;-69
2023/11/26 00:26:51;;;;;;;2.33;1.20;;;2.60;99.90;;;;;;5102235;27;20043;-68
2023/11/26 00:29:17;;;;;;;2.85;1.00;;;2.50;99.90;;;;;;5087224;28;20075;-69
2023/11/26 00:31:42;;;;;;;5.28;1.35;;;2.50;99.90;;;;;;5138647;27;20466;-69
2023/11/26 00:34:08;;;;;;;2.58;1.60;;;2.50;99.90;;;;;;5104798;27;20040;-69
2023/11/26 00:36:33;;;;;;;2.47;1.48;;;2.90;99.90;;;;;;5104818;27;20128;-69
2023/11/26 00:38:59;;;;;;;3.15;1.90;;;2.50;99.90;;;;;;5102794;27;20061;-69
2023/11/26 00:41:25;;;;;;;10.13;2.05;;;2.50;99.90;;;;;;5102749;27;20023;-69
2023/11/26 00:43:50;;;;;;;5.72;1.48;;;2.50;99.90;;;;;;5104934;27;20047;-69
2023/11/26 00:46:16;;;;;;;5.88;1.42;;;2.50;99.90;;;;;;5104002;27;20036;-69
2023/11/26 00:48:41;;;;;;;10.13;1.50;;;2.60;99.90;;;;;;5101593;27;20047;-69
2023/11/26 00:51:07;;;;;;;7.20;1.55;;;2.70;99.90;;;;;;5102189;27;20036;-69
2023/11/26 00:53:33;;;;;;;2.35;1.05;;;2.70;99.90;;;;;;5102963;27;20486;-69
2023/11/26 00:56:00;;;;;;;3.25;1.00;;;2.70;99.90;;;;;;5101423;27;20044;-69
2023/11/26 00:58:26;;;;;;;3.10;1.25;;;2.80;99.90;;;;;;5102636;27;20047;-69
2023/11/26 01:00:52;;;;;;;2.95;1.05;;;2.80;99.90;;;;;;5105703;27;20607;-69
2023/11/26 01:03:21;;;;;;;5.93;1.40;;;2.80;99.90;;;;;;5102956;28;20039;-69
2023/11/26 01:05:47;;;;;;;4.00;1.10;;;2.90;99.90;;;;;;5105686;27;20035;-69
2023/11/26 01:08:14;;;;;;;3.83;1.25;;;2.90;99.90;;;;;;5105085;28;20175;-69
2023/11/26 01:10:39;;;;;;;3.22;0.68;;;2.90;99.90;;;;;;5102888;28;20443;-69
2023/11/26 01:13:06;;;;;;;7.10;1.67;;;3.00;99.90;;;;;;5105640;27;20039;-69
2023/11/26 01:15:33;;;;;;;8.98;1.85;;;2.90;99.90;;;;;;5102166;28;20040;-69
2023/11/26 01:17:59;;;;;;;5.63;1.00;;;3.00;99.90;;;;;;5103052;28;20086;-69
2023/11/26 01:20:25;;;;;;;2.55;0.60;;;3.00;99.90;;;;;;5100839;28;20451;-69
2023/11/26 01:22:50;;;;;;;4.30;0.70;;;3.00;99.90;;;;;;5105547;28;20134;-69
2023/11/26 01:25:16;;;;;;;4.80;0.95;;;3.10;99.90;;;;;;5108564;28;20044;-69
2023/11/26 01:27:41;;;;;;;1.92;0.90;;;3.10;99.90;;;;;;5100362;28;20046;-69
2023/11/26 01:30:09;;;;;;;2.00;0.73;;;3.10;99.90;;;;;;5099757;28;20044;-69
2023/11/26 01:32:35;;;;;;;5.15;1.08;;;3.10;99.90;;;;;;5132922;27;20048;-69
2023/11/26 01:35:02;;;;;;;4.43;1.00;;;3.20;99.90;;;;;;5134078;27;20047;-69
2023/11/26 01:37:28;;;;;;;4.05;1.13;;;3.20;99.90;;;;;;5134607;27;20043;-69
2023/11/26 01:39:54;;;;;;;3.20;1.27;;;3.20;99.90;;;;;;5102044;28;20031;-69
2023/11/26 01:42:20;;;;;;;5.18;1.65;;;3.30;99.90;;;;;;5132069;27;20036;-69
2023/11/26 01:44:45;;;;;;;6.47;1.83;;;3.30;99.90;;;;;;5103859;28;20043;-69
2023/11/26 01:47:12;;;;;;;5.20;1.67;;;3.30;99.90;;;;;;5101790;28;20036;-69
2023/11/26 01:49:38;;;;;;;3.00;1.50;;;3.40;99.90;;;;;;5103805;28;20035;-69
2023/11/26 01:52:08;;;;;;;5.43;1.40;;;3.40;99.90;;;;;;5102737;28;20633;-69
2023/11/26 01:54:36;;;;;;;5.18;1.42;;;3.40;99.90;;;;;;5101937;28;20040;-69
2023/11/26 01:57:04;;;;;;;5.10;1.60;;;3.40;99.90;;;;;;5108510;27;20063;-70
2023/11/26 01:59:30;;;;;;;6.45;1.58;;;3.40;99.90;;;;;;5104977;27;20591;-69
2023/11/26 02:01:56;;;;;;;6.22;2.13;;;3.40;99.90;;;;;;5104690;27;20122;-69
2023/11/26 02:04:21;;;;;;;4.43;1.48;;;3.40;99.90;;;;;;5139927;27;20118;-69
2023/11/26 02:06:48;;;;;;;6.47;1.98;;;3.40;99.90;;;;;;5108978;27;20081;-69
2023/11/26 02:09:16;;;;;;;5.93;1.88;;;3.50;99.90;;;;;;5110471;27;20052;-69
2023/11/26 02:11:43;;;;;;;4.47;1.73;;;3.50;99.90;;;;;;5105588;27;20050;-69
2023/11/26 02:14:10;;;;;;;6.05;2.30;;;3.50;99.90;;;;;;5106026;27;20138;-69
2023/11/26 02:16:36;;;;;;;9.30;2.30;;;3.50;99.90;;;;;;5107578;27;20036;-69
2023/11/26 02:19:05;;;;;;;5.20;1.77;;;3.50;99.90;;;;;;5112574;27;20077;-70
2023/11/26 02:21:31;;;;;;;8.38;2.15;;;3.60;99.90;;;;;;5105079;27;20043;-70
2023/11/26 02:23:57;;;;;;;5.55;2.25;;;3.50;99.90;;;;;;5107428;27;20067;-70
2023/11/26 02:26:23;;;;;;;10.55;2.45;;;3.60;99.90;;;;;;5105936;27;20067;-70
2023/11/26 02:28:48;;;;;;;5.50;2.58;;;3.60;99.90;;;;;;5091469;27;20529;-70
2023/11/26 02:31:14;;;;;;;5.07;2.13;;;3.60;99.90;;;;;;5109309;27;20380;-70
2023/11/26 02:33:39;;;;;;;8.75;2.10;;;3.60;99.90;;;;;;5106143;27;20048;-70
2023/11/26 02:36:06;;;;;;;4.70;1.70;;;3.60;99.90;;;;;;5108090;27;20035;-70
2023/11/26 02:38:32;;;;;;;7.18;1.90;;;3.60;99.90;;;;;;5137547;27;20492;-70
2023/11/26 02:40:58;;;;;;;5.30;2.03;;;3.50;99.90;;;;;;5110394;27;20035;-70
2023/11/26 02:43:23;;;;;;;3.20;1.70;;;3.50;99.90;;;;;;5108318;27;20119;-70
2023/11/26 02:45:56;;;;;;;6.47;1.85;;;3.50;99.90;;;;;;5101211;27;20043;-69
2023/11/26 02:48:23;;;;;;;4.97;2.05;;;3.50;99.90;;;;;;5115171;27;20412;-70
2023/11/26 02:50:50;;;;;;;7.65;2.00;;;3.40;99.90;;;;;;5139042;27;20047;-69
2023/11/26 02:53:15;;;;;;;3.95;1.92;;;3.40;99.90;;;;;;5090086;27;20051;-69
2023/11/26 02:55:41;;;;;;;6.18;2.00;;;3.40;99.90;;;;;;5108325;27;20418;-69
2023/11/26 02:58:09;;;;;;;7.10;2.20;;;3.40;99.90;;;;;;5104907;27;20036;-69
2023/11/26 03:00:36;;;;;;;4.43;1.92;;;3.30;99.90;;;;;;5105190;27;20075;-70
2023/11/26 03:03:03;;;;;;;5.68;2.13;;;3.20;99.90;;;;;;5108434;27;20050;-69
2023/11/26 03:05:29;;;;;;;5.07;1.52;;;3.20;99.90;;;;;;5105757;27;20394;-69
2023/11/26 03:08:09;;;;;;;3.97;1.40;;;3.30;99.90;;;;;;5139917;27;20043;-69
2023/11/26 03:13:22;;;;;;;4.13;1.80;;;3.20;99.90;;;;;;5106479;27;20134;-69
2023/11/26 03:15:49;;;;;;;10.15;1.80;;;3.10;99.90;;;;;;5103461;27;20092;-69
2023/11/26 03:18:17;;;;;;;5.63;2.00;;;3.10;99.90;;;;;;5136683;27;20058;-69
2023/11/26 03:20:43;;;;;;;5.50;1.80;;;3.10;99.90;;;;;;5104414;27;20116;-69
2023/11/26 03:23:09;;;;;;;3.85;1.50;;;3.10;99.90;;;;;;5106427;27;20046;-69
2023/11/26 03:25:35;;;;;;;5.60;2.28;;;3.10;99.90;;;;;;5108667;27;20432;-69
2023/11/26 03:28:04;;;;;;;3.72;1.77;;;3.10;99.90;;;;;;5137569;27;20126;-69
2023/11/26 03:30:30;;;;;;;3.65;1.90;;;3.00;99.90;;;;;;5107300;27;20051;-69
2023/11/26 03:32:57;;;;;;;7.95;1.70;;;3.00;99.90;;;;;;5106567;27;20035;-69
2023/11/26 03:35:24;;;;;;;2.65;1.55;;;3.00;99.90;;;;;;5106774;27;20097;-70
2023/11/26 03:37:51;;;;;;;2.80;1.70;;;2.90;99.90;;;;;;5105535;27;20039;-69
2023/11/26 03:40:19;;;;;;;6.80;1.30;;;3.00;99.90;;;;;;5135757;27;20054;-69
2023/11/26 03:42:45;;;;;;;5.50;1.42;;;3.00;99.90;;;;;;5103744;27;20048;-69
2023/11/26 03:45:11;;;;;;;4.15;1.42;;;3.00;99.90;;;;;;5137379;27;20393;-69
2023/11/26 03:47:38;;;;;;;5.90;1.50;;;3.00;99.90;;;;;;5105207;27;20032;-69
2023/11/26 03:50:09;;;;;;;5.30;2.42;;;3.00;99.90;;;;;;5136779;27;20051;-69
2023/11/26 03:52:34;;;;;;;3.17;1.42;;;3.00;99.90;;;;;;5104445;27;20043;-69
2023/11/26 03:55:00;;;;;;;4.80;1.30;;;2.90;99.90;;;;;;5111120;27;20102;-69
2023/11/26 03:57:26;;;;;;;5.32;1.73;;;3.00;99.90;;;;;;5106065;27;20082;-69
2023/11/26 03:59:52;;;;;;;7.78;1.00;;;3.00;99.90;;;;;;5108610;27;20058;-69
2023/11/26 04:02:17;;;;;;;3.63;1.23;;;3.00;99.90;;;;;;5137181;27;20051;-69
2023/11/26 04:04:44;;;;;;;4.47;0.80;;;3.10;99.90;;;;;;5106459;27;20076;-69
2023/11/26 04:07:09;;;;;;;3.08;0.65;;;3.10;99.90;;;;;;5104619;27;20130;-69
2023/11/26 04:09:35;;;;;;;5.95;0.80;;;3.10;99.90;;;;;;5106090;27;20118;-69
2023/11/26 04:12:00;;;;;;;7.45;1.25;;;3.20;99.90;;;;;;5133814;27;20101;-69
2023/11/26 04:14:31;;;;;;;6.05;0.98;;;3.30;99.90;;;;;;5106681;27;20035;-69
2023/11/26 04:16:56;;;;;;;5.95;0.60;;;3.30;99.90;;;;;;5104474;27;20050;-69
2023/11/26 04:19:22;;;;;;;5.13;1.10;;;3.40;99.90;;;;;;5102959;27;20071;-70
2023/11/26 04:21:48;;;;;;;9.18;1.50;;;3.40;99.90;;;;;;5106327;27;20035;-70
2023/11/26 04:24:13;;;;;;;1.63;0.50;;;3.50;99.90;;;;;;5108126;27;20036;-70
2023/11/26 04:26:39;;;;;;;4.85;0.70;;;3.60;99.90;;;;;;5103597;27;20095;-70
2023/11/26 04:29:06;;;;;;;7.32;0.68;;;3.60;99.90;;;;;;5107155;27;20031;-70
2023/11/26 04:31:31;;;;;;;3.33;0.60;;;3.60;99.90;;;;;;5108220;27;20398;-70
2023/11/26 04:33:57;;;;;;;4.13;0.52;;;3.60;99.90;;;;;;5105462;27;20031;-70
2023/11/26 04:36:23;;;;;;;3.45;0.43;;;3.70;99.90;;;;;;5103258;27;20579;-70
2023/11/26 04:38:49;;;;;;;4.28;0.30;;;3.70;99.90;;;;;;5104563;27;20031;-70
2023/11/26 04:41:15;;;;;;;3.33;0.50;;;3.70;99.90;;;;;;5104801;27;20046;-70
2023/11/26 04:43:41;;;;;;;3.95;0.40;;;3.70;99.90;;;;;;5108062;27;20028;-70
2023/11/26 04:46:07;;;;;;;3.58;0.80;;;3.80;99.90;;;;;;5134639;27;20473;-70
2023/11/26 04:48:33;;;;;;;4.40;0.38;;;3.70;99.90;;;;;;5109875;27;20683;-70
2023/11/26 04:51:00;;;;;;;5.43;0.52;;;3.80;99.90;;;;;;5102587;27;20051;-70
2023/11/26 04:53:27;;;;;;;3.63;0.47;;;3.80;99.90;;;;;;5102510;28;20032;-70
2023/11/26 04:55:53;;;;;;;3.38;0.35;;;3.80;99.90;;;;;;5106087;27;20039;-70
2023/11/26 04:58:18;;;;;;;7.85;0.73;;;3.80;99.90;;;;;;5102967;28;20493;-70
2023/11/26 05:00:45;;;;;;;3.97;0.45;;;3.80;99.90;;;;;;5130315;27;20032;-70
2023/11/26 05:03:11;;;;;;;6.07;0.50;;;3.80;99.90;;;;;;5106225;27;20163;-70
2023/11/26 05:05:37;;;;;;;5.43;0.60;;;3.80;99.90;;;;;;5103854;28;20131;-70
2023/11/26 05:08:04;;;;;;;4.68;0.57;;;3.80;99.90;;;;;;5103741;28;20050;-70
2023/11/26 05:10:31;;;;;;;7.07;0.47;;;3.80;99.90;;;;;;5102921;27;20046;-70
2023/11/26 05:12:57;;;;;;;5.60;0.65;;;3.80;99.90;;;;;;5106916;27;20120;-70
2023/11/26 05:15:23;;;;;;;7.75;0.80;;;3.80;99.90;;;;;;5106130;27;20074;-70
2023/11/26 05:17:49;;;;;;;4.20;0.20;;;3.80;99.90;;;;;;5102885;28;20048;-70
2023/11/26 05:20:15;;;;;;;3.95;1.05;;;3.80;99.90;;;;;;5102102;28;20082;-70
2023/11/26 05:22:41;;;;;;;5.38;0.30;;;3.80;99.90;;;;;;5135943;27;20102;-70
2023/11/26 05:25:07;;;;;;;4.93;0.60;;;3.90;99.90;;;;;;5135893;27;20043;-70
2023/11/26 05:27:33;;;;;;;6.13;0.65;;;3.90;99.90;;;;;;5136032;27;20054;-70
2023/11/26 05:30:01;;;;;;;3.25;0.20;;;3.90;99.90;;;;;;5106361;27;20039;-70
2023/11/26 05:32:28;;;;;;;2.78;0.30;;;3.90;99.90;;;;;;5140854;27;20047;-70
2023/11/26 05:34:57;;;;;;;5.07;0.80;;;3.90;99.90;;;;;;5140269;27;20093;-70
2023/11/26 05:37:22;;;;;;;1.08;0.30;;;4.00;99.90;;;;;;5112694;27;20124;-70
2023/11/26 05:39:48;;;;;;;4.70;0.40;;;4.00;99.90;;;;;;5110341;27;20831;-70
2023/11/26 05:42:13;;;;;;;7.70;0.30;;;4.00;99.90;;;;;;5109754;27;20092;-70
2023/11/26 05:44:39;;;;;;;4.47;0.55;;;4.20;99.90;;;;;;5116386;27;20153;-70
2023/11/26 05:47:05;;;;;;;2.75;0.40;;;4.20;99.90;;;;;;5109077;27;20993;-70
2023/11/26 05:49:31;;;;;;;4.78;0.55;;;4.20;99.90;;;;;;5109182;27;20042;-70
2023/11/26 05:51:57;;;;;;;3.13;0.20;;;4.30;99.90;;;;;;5136999;27;20119;-70
2023/11/26 05:54:23;;;;;;;5.82;0.50;;;4.30;99.90;;;;;;5108907;27;20089;-70
2023/11/26 05:56:50;;;;;;;2.47;0.35;;;4.30;99.90;;;;;;5109426;27;20432;-70
2023/11/26 05:59:16;;;;;;;4.57;0.68;;;4.40;99.90;;;;;;5107923;27;20085;-70
2023/11/26 06:01:42;;;;;;;10.82;1.15;;;4.30;99.90;;;;;;5106196;27;20046;-70
2023/11/26 06:04:07;;;;;;;2.20;0.30;;;4.30;99.90;;;;;;5107303;27;20035;-70
2023/11/26 06:06:33;;;;;;;4.97;0.50;;;4.30;99.90;;;;;;5140025;27;20535;-70
2023/11/26 06:08:59;;;;;;;3.08;0.43;;;4.30;99.90;;;;;;5108091;27;20068;-70
2023/11/26 06:11:24;;;;;;;6.60;0.43;;;4.30;99.90;;;;;;5104785;27;20059;-70
2023/11/26 06:13:50;;;;;;;7.13;0.50;;;4.30;99.90;;;;;;5107241;27;20036;-70
2023/11/26 06:16:16;;;;;;;6.53;1.33;;;4.30;99.90;;;;;;5111039;27;20478;-70
2023/11/26 06:18:42;;;;;;;6.88;0.40;;;4.30;99.90;;;;;;5107430;27;20044;-70
2023/11/26 06:21:07;;;;;;;3.05;0.47;;;4.30;99.90;;;;;;5108039;27;20100;-70
2023/11/26 06:23:33;;;;;;;4.80;0.50;;;4.40;99.90;;;;;;5107145;27;20040;-70
2023/11/26 06:25:59;;;;;;;3.78;0.30;;;4.40;99.90;;;;;;5104861;27;20127;-70
2023/11/26 06:28:25;;;;;;;6.45;1.08;;;4.30;99.90;;;;;;5108631;27;20039;-70
2023/11/26 06:30:51;;;;;;;5.63;0.65;;;4.40;99.90;;;;;;5104273;27;20045;-71
2023/11/26 06:33:17;;;;;;;8.88;0.63;;;4.30;99.90;;;;;;5104958;27;20036;-71
2023/11/26 06:35:43;;;;;;;6.90;0.50;;;4.40;99.90;;;;;;5108033;27;20035;-70
2023/11/26 06:38:09;;;;;;;5.97;0.47;;;4.40;99.90;;;;;;5107728;27;20075;-70
2023/11/26 06:40:36;;;;;;;4.35;0.40;;;4.40;99.90;;;;;;5136012;27;20039;-70
2023/11/26 06:43:02;;;;;;;7.32;0.35;;;4.40;99.90;;;;;;5108273;27;20478;-71
2023/11/26 06:45:28;;;;;;;2.78;0.38;;;4.50;99.90;;;;;;5109147;27;20039;-71
2023/11/26 06:47:53;;;;;;;6.13;0.82;;;4.50;99.90;;;;;;5111215;27;20036;-71
2023/11/26 06:50:19;;;;;;;3.55;0.47;;;4.50;99.90;;;;;;5107242;27;20526;-70
2023/11/26 06:52:45;;;;;;;8.40;0.88;;;4.50;99.90;;;;;;5107452;27;20036;-70
2023/11/26 06:55:10;;;;;;;8.73;0.50;;;4.50;99.90;;;;;;5108702;27;20039;-70
2023/11/26 06:57:36;;;;;;;3.90;0.40;;;4.50;99.90;;;;;;5107104;27;20063;-70
2023/11/26 07:00:03;;;;;;;3.47;0.40;;;4.50;99.90;;;;;;5108383;27;20047;-70
2023/11/26 07:02:29;;;;;;;5.18;0.40;;;4.50;99.90;;;;;;5107249;27;20043;-71
2023/11/26 07:04:55;;;;;;;4.18;0.40;;;4.50;99.90;;;;;;5100033;27;20036;-70
2023/11/26 07:07:21;;;;;;;3.08;0.38;;;4.50;99.90;;;;;;5098442;27;20043;-70
2023/11/26 07:09:47;;;;;;;6.75;1.60;;;4.50;99.90;;;;;;5104393;27;20072;-70
2023/11/26 07:12:13;;;;;;;13.15;0.82;;;4.50;99.90;;;;;;5136295;27;20554;-70
2023/11/26 07:14:38;;;;;;;10.07;1.77;;;4.50;99.90;;;;;;5104766;27;20040;-70
2023/11/26 07:17:05;;;;;;;6.28;0.73;;;4.50;99.90;;;;;;5106923;27;20073;-70
2023/11/26 07:19:31;;;;;;;6.85;1.02;;;4.50;99.90;;;;;;5104601;27;20035;-70
2023/11/26 07:21:57;;;;;;;4.00;0.40;;;4.50;99.90;;;;;;5105036;27;20036;-70
2023/11/26 07:24:23;;;;;;;9.23;0.60;;;4.50;99.90;;;;;;5103064;27;20078;-70
2023/11/26 07:26:48;;;;;;;6.90;1.13;;;4.60;99.90;;;;;;5131935;27;20088;-70
2023/11/26 07:29:15;;;;;;;4.15;0.77;;;4.60;99.90;;;;;;5097448;27;20044;-70
2023/11/26 07:31:41;;;;;;;4.80;0.65;;;4.60;99.90;;;;;;5098684;27;20126;-70
2023/11/26 07:34:06;;;;;;;3.22;0.38;;;4.60;99.90;;;;;;5096705;27;20051;-70
2023/11/26 07:36:32;;;;;;;6.20;1.08;;;4.60;99.90;;;;;;5126709;27;21372;-70
2023/11/26 07:38:58;;;;;;;6.97;0.55;;;4.60;99.90;;;;;;5096661;27;20035;-70
2023/11/26 07:41:25;;;;;;;7.55;0.60;;;4.60;99.90;;;;;;5097296;27;20047;-70
2023/11/26 07:43:52;;;;;;;4.55;0.30;;;4.70;99.90;;;;;;5099621;27;20059;-71
2023/11/26 07:46:19;;;;;;;2.35;0.38;;;4.60;99.90;;;;;;5102088;28;20038;-71
2023/11/26 07:48:46;;;;;;;6.07;0.50;;;4.70;99.90;;;;;;5101206;27;20581;-71
2023/11/26 07:51:12;;;;;;;4.43;0.30;;;4.70;99.90;;;;;;5130590;27;20057;-71
2023/11/26 07:53:39;;;;;;;9.20;0.43;;;4.70;99.90;;;;;;5095231;28;20095;-71
2023/11/26 07:56:06;;;;;;;4.05;0.40;;;4.70;99.90;;;;;;5102622;27;20050;-71
2023/11/26 07:58:33;;;;;;;5.78;0.55;;;4.70;99.90;;;;;;5099332;27;20378;-71
2023/11/26 08:01:02;;;;;;;4.78;0.40;;;4.70;99.90;;;;;;5099865;27;20044;-70
2023/11/26 08:03:32;;;;;;;7.22;0.80;;;4.70;99.90;;;;;;5102065;28;20040;-70
2023/11/26 08:05:58;;;;;;;7.57;1.05;;;4.80;99.90;;;;;;5131672;27;20050;-70
2023/11/26 08:08:24;;;;;;;4.20;1.77;;;4.80;99.90;;;;;;5135939;27;20463;-70
2023/11/26 08:10:51;;;;;;;3.72;0.65;;;4.80;99.90;;;;;;5103864;27;20052;-70
2023/11/26 08:13:22;;;;;;;4.82;0.68;;;4.80;99.90;;;;;;5136424;27;20508;-70
2023/11/26 08:15:52;;;;;;;5.63;0.77;;;4.90;99.90;;;;;;5104695;27;20452;-70
2023/11/26 08:18:18;;;;;;;8.20;0.90;;;4.80;99.90;;;;;;5101776;27;20036;-70
2023/11/26 08:20:44;;;;;;;4.93;0.77;;;4.80;99.90;;;;;;5106461;27;20080;-71
2023/11/26 08:23:12;;;;;;;6.25;0.77;;;4.90;99.90;;;;;;5129696;27;20058;-70
2023/11/26 08:25:41;;;;;;;6.20;0.70;;;4.90;99.90;;;;;;5101303;27;20044;-70
2023/11/26 08:28:07;;;;;;;5.63;0.85;;;4.90;99.90;;;;;;5102986;27;20040;-71
2023/11/26 08:30:42;;;;;;;5.60;0.50;;;4.90;99.90;;;;;;5098434;28;20071;-71
2023/11/26 08:33:09;;;;;;;4.73;0.50;;;5.00;99.90;;;;;;5131398;27;20053;-70
2023/11/26 08:35:35;;;;;;;2.95;0.40;;;5.00;99.90;;;;;;5116307;27;20043;-70
2023/11/26 08:38:02;;;;;;;7.55;0.75;;;5.00;99.90;;;;;;5101778;27;20040;-70
2023/11/26 08:40:33;;;;;;;2.42;0.40;;;5.10;99.90;;;;;;5099880;27;20123;-70
2023/11/26 08:43:09;;;;;;;7.32;0.43;;;5.10;99.90;;;;;;5083344;28;20046;-70
2023/11/26 08:45:38;;;;;;;5.88;0.40;;;5.20;99.90;;;;;;5099426;27;20040;-70
2023/11/26 08:48:05;;;;;;;7.95;0.77;;;5.20;99.90;;;;;;5098498;28;20485;-70
2023/11/26 08:50:31;;;;;;;5.05;0.65;;;5.30;99.90;;;;;;5100086;27;21027;-71
2023/11/26 08:52:59;;;;;;;8.27;0.47;;;5.30;99.90;;;;;;5129131;27;20054;-70
2023/11/26 08:55:25;;;;;;;6.38;0.60;;;5.30;99.90;;;;;;5098009;27;20058;-71
2023/11/26 08:57:51;;;;;;;5.90;0.88;;;5.40;99.90;;;;;;5079802;28;20055;-70
2023/11/26 09:00:17;;;;;;;9.73;0.65;;;5.50;99.90;;;;;;5099307;27;20114;-70
2023/11/26 09:02:44;;;;;;;5.47;0.40;;;5.50;99.90;;;;;;5102314;28;20039;-70
2023/11/26 09:05:09;;;;;;;13.20;1.05;;;5.50;99.90;;;;;;5102316;28;20559;-70
2023/11/26 09:07:36;;;;;;;4.10;0.85;;;5.90;99.90;;;;;;5099448;28;20043;-70
2023/11/26 09:10:03;;;;;;;5.90;1.00;;;5.70;99.90;;;;;;5100468;28;20036;-70
2023/11/26 09:12:29;;;;;;;2.60;0.55;;;5.70;99.90;;;;;;5099106;28;20406;-70
2023/11/26 09:14:56;;;;;;;8.10;0.70;;;5.70;99.90;;;;;;5100599;28;20151;-70
2023/11/26 09:17:21;;;;;;;4.70;0.55;;;5.70;99.90;;;;;;5098307;28;20122;-70
2023/11/26 09:19:47;;;;;;;4.15;0.43;;;5.70;99.90;;;;;;5128511;27;20101;-70
2023/11/26 09:22:13;;;;;;;7.35;0.93;;;5.70;99.90;;;;;;5130140;27;20039;-70
2023/11/26 09:24:39;;;;;;;6.57;0.60;;;5.70;99.90;;;;;;5128868;27;20047;-70
2023/11/26 09:27:05;;;;;;;4.75;0.45;;;5.80;99.90;;;;;;5095898;28;20517;-70
2023/11/26 09:29:31;;;;;;;8.23;0.65;;;5.80;99.90;;;;;;5098636;28;20052;-70
2023/11/26 09:31:57;;;;;;;5.25;0.70;;;5.90;99.90;;;;;;5129279;27;20482;-70
2023/11/26 09:34:24;;;;;;;6.75;0.88;;;5.90;99.90;;;;;;5098432;28;20072;-70
2023/11/26 09:36:52;;;;;;;6.72;0.57;;;6.10;99.90;;;;;;5098729;28;20035;-70
2023/11/26 09:39:19;;;;;;;6.03;0.65;;;6.10;99.90;;;;;;5127743;27;20040;-70
2023/11/26 09:41:45;;;;;;;7.43;0.60;;;6.20;99.90;;;;;;5100109;28;20141;-70
2023/11/26 09:44:10;;;;;;;3.97;0.68;;;6.30;99.90;;;;;;5096554;28;20102;-70
2023/11/26 09:46:36;;;;;;;7.10;0.70;;;6.20;99.90;;;;;;5100488;28;20067;-70
2023/11/26 09:49:02;;;;;;;4.72;1.02;;;6.30;99.90;;;;;;5094886;28;20054;-70
2023/11/26 09:51:35;;;;;;;5.00;0.82;;;6.30;99.90;;;;;;5098465;28;20040;-70
2023/11/26 09:54:01;;;;;;;6.47;1.00;;;6.50;99.90;;;;;;5098855;28;20059;-70
2023/11/26 09:56:27;;;;;;;4.80;1.15;;;6.60;99.90;;;;;;5097086;28;20397;-70
2023/11/26 09:58:55;;;;;;;8.88;0.90;;;6.70;99.90;;;;;;5096503;28;20101;-70
2023/11/26 10:01:21;;;;;;;6.60;1.15;;;6.70;99.90;;;;;;5098046;28;20482;-71
2023/11/26 10:04:00;;;;;;;9.27;1.05;;;6.80;99.90;;;;;;5130959;27;20047;-70
2023/11/26 10:06:27;;;;;;;3.50;0.80;;;6.80;99.90;;;;;;5130748;27;20717;-70
2023/11/26 10:08:53;;;;;;;3.63;1.02;;;6.80;99.90;;;;;;5098189;28;20512;-70
2023/11/26 10:11:21;;;;;;;4.70;1.13;;;6.80;99.90;;;;;;5129861;27;20048;-70
2023/11/26 10:13:48;;;;;;;10.65;1.98;;;6.90;99.90;;;;;;5088505;28;20043;-70
2023/11/26 10:16:34;;;;;;;4.53;1.00;;;6.90;99.90;;;;;;5085842;28;20044;-71
2023/11/26 10:19:00;;;;;;;;;;;6.90;99.90;;;;;;5101604;27;20036;-70
2023/11/26 10:21:26;;;;;;;6.32;1.20;;;6.90;99.90;;;;;;5104415;27;20338;-71
2023/11/26 10:23:52;;;;;;;7.10;1.17;;;7.00;99.90;;;;;;5135095;27;20071;-70
2023/11/26 10:26:26;;;;;;;5.18;1.00;;;6.80;99.90;;;;;;5098969;28;20155;-70
2023/11/26 10:29:03;;;;;;;6.72;0.73;;;6.90;99.90;;;;;;5102320;27;20043;-70
2023/11/26 10:31:29;;;;;;;5.78;1.17;;;6.90;99.90;;;;;;5102800;27;20048;-70
2023/11/26 10:34:09;;;;;;;7.10;1.23;;;6.90;99.90;;;;;;5131002;27;21905;-70
2023/11/26 10:36:35;;;;;;;7.90;0.98;;;6.90;99.90;;;;;;5131105;27;20110;-70
2023/11/26 10:39:04;;;;;;;14.70;0.90;;;6.90;99.90;;;;;;5102845;27;20036;-71
2023/11/26 10:41:34;;;;;;;6.85;1.35;;;6.80;99.90;;;;;;5131743;27;20055;-71
2023/11/26 10:44:00;;;;;;;7.25;0.90;;;6.90;99.90;;;;;;5103004;27;20126;-70
2023/11/26 10:46:26;;;;;;;8.35;1.30;;;6.90;99.90;;;;;;5133064;27;20052;-70
2023/11/26 10:49:01;;;;;;;10.27;1.02;;;6.90;99.90;;;;;;5101254;28;20043;-70
2023/11/26 10:51:28;;;;;;;8.90;0.93;;;7.00;99.90;;;;;;5099440;27;20054;-71
2023/11/26 10:54:05;;;;;;;7.63;1.00;;;7.80;99.90;;;;;;5135794;27;20497;-71
2023/11/26 10:56:39;;;;;;;10.52;1.17;;;7.00;99.90;;;;;;5100274;27;20052;-71
2023/11/26 10:59:14;;;;;;;7.60;0.70;;;7.10;99.90;;;;;;5100778;27;20109;-71
2023/11/26 11:01:42;;;;;;;9.75;1.10;;;7.10;99.90;;;;;;5120345;27;20048;-71
2023/11/26 11:04:14;;;;;;;8.48;0.95;;;7.20;99.90;;;;;;5097303;27;20040;-70
2023/11/26 11:06:40;;;;;;;8.85;0.90;;;7.20;99.90;;;;;;5100374;27;20067;-70
2023/11/26 11:09:12;;;;;;;6.57;0.93;;;7.20;99.90;;;;;;5099766;27;20036;-70
2023/11/26 11:12:03;;;;;;;5.90;0.98;;;7.20;99.90;;;;;;5111712;27;20050;-70
2023/11/26 11:14:30;;;;;;;6.53;0.80;;;7.30;99.90;;;;;;5101803;27;20048;-70
2023/11/26 11:16:56;;;;;;;11.23;1.00;;;7.30;99.90;;;;;;5102988;27;20050;-70
2023/11/26 11:19:48;;;;;;;5.85;0.80;;;7.30;99.90;;;;;;5100606;27;20027;-70
2023/11/26 11:22:14;;;;;;;7.90;0.82;;;7.40;99.90;;;;;;5098133;27;20078;-70
2023/11/26 11:24:40;;;;;;;6.13;1.45;;;7.40;99.90;;;;;;5104290;27;20042;-70
2023/11/26 11:27:05;;;;;;;10.32;0.85;;;7.40;99.90;;;;;;5130081;27;20032;-70
2023/11/26 11:29:32;;;;;;;5.78;0.95;;;7.40;99.90;;;;;;5098623;27;20612;-70
2023/11/26 11:32:00;;;;;;;5.38;1.10;;;7.40;99.90;;;;;;5102837;27;20067;-70
2023/11/26 11:34:26;;;;;;;10.07;1.17;;;7.50;99.90;;;;;;5106189;27;20566;-70
2023/11/26 11:36:54;;;;;;;6.18;0.90;;;7.50;99.90;;;;;;5104282;27;20126;-70
2023/11/26 11:39:25;;;;;;;6.13;0.57;;;7.60;99.90;;;;;;5104016;27;21420;-70
2023/11/26 11:41:59;;;;;;;7.03;1.08;;;7.60;99.90;;;;;;5104243;27;21354;-70
2023/11/26 11:44:29;;;;;;;6.60;0.70;;;7.60;99.90;;;;;;5134841;27;20058;-70
2023/11/26 11:46:58;;;;;;;7.53;0.65;;;7.70;99.90;;;;;;5102842;27;20123;-70
2023/11/26 11:49:31;;;;;;;14.85;1.40;;;7.70;99.90;;;;;;5102484;27;20432;-71
2023/11/26 11:51:58;;;;;;;4.07;0.65;;;7.80;99.90;;;;;;5104624;27;20048;-71
2023/11/26 11:54:56;;;;;;;4.03;0.65;;;7.80;99.90;;;;;;5137582;27;20479;-70
2023/11/26 11:57:27;;;;;;;6.85;0.80;;;7.80;99.90;;;;;;5074971;27;20044;-71
2023/11/26 11:59:55;;;;;;;4.07;0.77;;;7.80;99.90;;;;;;5101105;27;20089;-70
2023/11/26 12:02:24;;;;;;;3.38;0.60;;;7.90;99.90;;;;;;5105245;27;20437;-70
2023/11/26 12:04:53;;;;;;;4.43;0.77;;;7.90;99.90;;;;;;5105095;27;20039;-70
2023/11/26 12:07:20;;;;;;;6.82;0.85;;;7.90;99.90;;;;;;5108396;27;20047;-71
2023/11/26 12:09:47;;;;;;;5.68;0.82;;;7.90;99.90;;;;;;5100649;27;20381;-70
2023/11/26 12:12:19;;;;;;;7.13;0.60;;;7.90;99.90;;;;;;5104795;27;20052;-71
2023/11/26 12:14:46;;;;;;;7.00;0.93;;;7.90;99.90;;;;;;5104252;27;20031;-70
2023/11/26 12:17:12;;;;;;;10.73;1.63;;;7.90;99.90;;;;;;5136197;27;20046;-70
2023/11/26 12:19:39;;;;;;;3.55;0.90;;;7.90;99.90;;;;;;5103145;27;20027;-70
2023/11/26 12:22:06;;;;;;;4.93;0.70;;;7.90;99.90;;;;;;5104014;27;20048;-70
2023/11/26 12:24:33;;;;;;;3.55;0.68;;;7.90;99.90;;;;;;5105824;27;20067;-70
2023/11/26 12:26:59;;;;;;;6.53;0.80;;;7.90;99.90;;;;;;5104944;27;20047;-70
2023/11/26 12:29:26;;;;;;;6.15;1.13;;;7.90;99.90;;;;;;5090981;27;20440;-70
2023/11/26 12:32:07;;;;;;;6.47;0.68;;;8.30;99.90;;;;;;5102494;27;20046;-70
2023/11/26 12:34:37;;;;;;;3.25;0.50;;;7.90;99.90;;;;;;5105861;27;20118;-70
2023/11/26 12:37:03;;;;;;;4.40;0.50;;;7.90;99.90;;;;;;5100841;27;20036;-70
2023/11/26 12:39:31;;;;;;;3.00;0.43;;;7.80;99.90;;;;;;5103589;27;20031;-70
2023/11/26 12:41:57;;;;;;;7.28;1.05;;;7.90;99.90;;;;;;5097316;27;20428;-70
2023/11/26 12:44:23;;;;;;;5.55;1.10;;;7.90;99.90;;;;;;5093074;28;20035;-70
2023/11/26 12:46:49;;;;;;;5.95;1.33;;;7.90;99.90;;;;;;5101115;27;20425;-70
2023/11/26 12:49:16;;;;;;;4.85;0.82;;;7.90;99.90;;;;;;5105408;27;20114;-71
2023/11/26 12:51:44;;;;;;;5.45;0.68;;;7.90;99.90;;;;;;5102935;27;20118;-70
2023/11/26 12:54:10;;;;;;;3.20;0.40;;;7.90;99.90;;;;;;5136130;27;20044;-70
2023/11/26 12:56:37;;;;;;;5.55;0.43;;;7.90;99.90;;;;;;5104762;27;20395;-69
2023/11/26 12:59:03;;;;;;;3.83;0.65;;;7.90;99.90;;;;;;5101205;27;20158;-70